sensor_id;sensor_type;location;lat;lon;timestamp;pressure;altitude;pressure_sealevel;temperature;humidity
10518;BME280;5307;42.548;22.968;2023-04-29T00:00:29;93882.16;;;4.97;73.72
10518;BME280;5307;42.548;22.968;2023-04-29T00:02:56;93879.25;;;4.85;74.02
10518;BME280;5307;42.548;22.968;2023-04-29T00:05:23;93876.97;;;4.56;75.18
10518;BME280;5307;42.548;22.968;2023-04-29T00:07:51;93882.59;;;4.69;75.45
10518;BME280;5307;42.548;22.968;2023-04-29T00:10:18;93881.28;;;4.77;74.98
10518;BME280;5307;42.548;22.968;2023-04-29T00:12:44;93870.19;;;4.71;75.23
10518;BME280;5307;42.548;22.968;2023-04-29T00:15:12;93871.44;;;4.63;74.15
10518;BME280;5307;42.548;22.968;2023-04-29T00:17:38;93866.81;;;4.64;75.07
10518;BME280;5307;42.548;22.968;2023-04-29T00:20:06;93868.09;;;4.56;77.30
10518;BME280;5307;42.548;22.968;2023-04-29T00:22:35;93857.19;;;4.32;77.54
10518;BME280;5307;42.548;22.968;2023-04-29T00:25:05;93860.50;;;4.16;78.63
10518;BME280;5307;42.548;22.968;2023-04-29T00:27:32;93870.06;;;4.25;79.23
10518;BME280;5307;42.548;22.968;2023-04-29T00:29:58;93859.41;;;4.41;79.03
10518;BME280;5307;42.548;22.968;2023-04-29T00:32:25;93863.16;;;4.20;78.06
10518;BME280;5307;42.548;22.968;2023-04-29T00:34:52;93858.69;;;4.06;78.16
10518;BME280;5307;42.548;22.968;2023-04-29T00:37:19;93860.59;;;4.09;78.75
10518;BME280;5307;42.548;22.968;2023-04-29T00:39:46;93863.91;;;4.21;78.95
10518;BME280;5307;42.548;22.968;2023-04-29T00:42:15;93855.44;;;4.18;79.93
10518;BME280;5307;42.548;22.968;2023-04-29T00:44:42;93864.00;;;4.44;79.39
10518;BME280;5307;42.548;22.968;2023-04-29T00:47:09;93859.25;;;4.25;79.69
10518;BME280;5307;42.548;22.968;2023-04-29T00:49:36;93873.00;;;4.34;79.98
10518;BME280;5307;42.548;22.968;2023-04-29T00:52:04;93867.75;;;4.50;79.09
10518;BME280;5307;42.548;22.968;2023-04-29T00:54:32;93876.19;;;4.29;77.02
10518;BME280;5307;42.548;22.968;2023-04-29T00:57:00;93871.28;;;4.47;77.18
10518;BME280;5307;42.548;22.968;2023-04-29T00:59:28;93868.16;;;4.52;76.53
10518;BME280;5307;42.548;22.968;2023-04-29T01:01:58;93873.38;;;4.36;75.86
10518;BME280;5307;42.548;22.968;2023-04-29T01:04:25;93870.41;;;4.27;76.52
10518;BME280;5307;42.548;22.968;2023-04-29T01:07:00;93867.63;;;4.03;77.45
10518;BME280;5307;42.548;22.968;2023-04-29T01:09:43;93861.78;;;4.08;78.54
10518;BME280;5307;42.548;22.968;2023-04-29T01:12:20;93871.94;;;3.97;79.01
10518;BME280;5307;42.548;22.968;2023-04-29T01:14:53;93876.81;;;4.09;78.76
10518;BME280;5307;42.548;22.968;2023-04-29T01:17:30;93874.41;;;3.84;76.88
10518;BME280;5307;42.548;22.968;2023-04-29T01:20:03;93871.44;;;4.06;78.20
10518;BME280;5307;42.548;22.968;2023-04-29T01:22:32;93860.38;;;3.97;77.70
10518;BME280;5307;42.548;22.968;2023-04-29T01:25:00;93860.41;;;3.93;78.77
10518;BME280;5307;42.548;22.968;2023-04-29T01:27:29;93861.44;;;4.03;79.61
10518;BME280;5307;42.548;22.968;2023-04-29T01:30:01;93854.91;;;4.00;79.89
10518;BME280;5307;42.548;22.968;2023-04-29T01:32:44;93852.94;;;4.04;78.75
10518;BME280;5307;42.548;22.968;2023-04-29T01:35:34;93848.22;;;3.81;78.98
10518;BME280;5307;42.548;22.968;2023-04-29T01:38:16;93850.00;;;3.57;82.10
10518;BME280;5307;42.548;22.968;2023-04-29T01:40:49;93853.00;;;3.67;82.12
10518;BME280;5307;42.548;22.968;2023-04-29T01:43:22;93838.03;;;3.58;81.90
10518;BME280;5307;42.548;22.968;2023-04-29T01:45:51;93843.88;;;3.53;81.91
10518;BME280;5307;42.548;22.968;2023-04-29T01:48:20;93846.59;;;3.53;81.41
10518;BME280;5307;42.548;22.968;2023-04-29T01:50:48;93844.91;;;3.67;81.05
10518;BME280;5307;42.548;22.968;2023-04-29T01:53:14;93845.16;;;3.76;82.03
10518;BME280;5307;42.548;22.968;2023-04-29T01:55:41;93852.09;;;3.77;81.21
10518;BME280;5307;42.548;22.968;2023-04-29T01:58:10;93852.97;;;3.33;82.31
10518;BME280;5307;42.548;22.968;2023-04-29T02:00:37;93856.63;;;3.49;83.42
10518;BME280;5307;42.548;22.968;2023-04-29T02:03:04;93848.19;;;3.47;83.38
10518;BME280;5307;42.548;22.968;2023-04-29T02:05:30;93853.47;;;3.58;83.48
10518;BME280;5307;42.548;22.968;2023-04-29T02:07:58;93853.72;;;3.71;83.83
10518;BME280;5307;42.548;22.968;2023-04-29T02:10:25;93853.78;;;3.64;83.74
10518;BME280;5307;42.548;22.968;2023-04-29T02:12:52;93849.91;;;3.65;84.86
10518;BME280;5307;42.548;22.968;2023-04-29T02:15:20;93847.00;;;3.48;83.11
10518;BME280;5307;42.548;22.968;2023-04-29T02:17:48;93844.91;;;3.67;84.30
10518;BME280;5307;42.548;22.968;2023-04-29T02:20:15;93844.56;;;3.61;83.69
10518;BME280;5307;42.548;22.968;2023-04-29T02:22:42;93852.41;;;3.52;84.61
10518;BME280;5307;42.548;22.968;2023-04-29T02:25:09;93844.91;;;3.29;84.46
10518;BME280;5307;42.548;22.968;2023-04-29T02:27:36;93836.34;;;3.34;84.67
10518;BME280;5307;42.548;22.968;2023-04-29T02:30:04;93838.41;;;3.23;84.91
10518;BME280;5307;42.548;22.968;2023-04-29T02:32:32;93840.47;;;3.46;85.78
10518;BME280;5307;42.548;22.968;2023-04-29T02:35:00;93839.34;;;3.43;84.11
10518;BME280;5307;42.548;22.968;2023-04-29T02:37:26;93829.78;;;3.35;84.53
10518;BME280;5307;42.548;22.968;2023-04-29T02:39:53;93841.00;;;3.34;83.00
10518;BME280;5307;42.548;22.968;2023-04-29T02:42:20;93844.91;;;3.29;82.63
10518;BME280;5307;42.548;22.968;2023-04-29T02:44:47;93845.97;;;3.39;83.12
10518;BME280;5307;42.548;22.968;2023-04-29T02:47:14;93839.28;;;3.13;84.06
10518;BME280;5307;42.548;22.968;2023-04-29T02:49:42;93848.78;;;3.28;84.32
10518;BME280;5307;42.548;22.968;2023-04-29T02:52:09;93838.78;;;3.25;85.13
10518;BME280;5307;42.548;22.968;2023-04-29T02:54:35;93846.44;;;3.30;85.24
10518;BME280;5307;42.548;22.968;2023-04-29T02:57:02;93859.38;;;3.05;84.95
10518;BME280;5307;42.548;22.968;2023-04-29T02:59:29;93854.34;;;3.10;85.87
10518;BME280;5307;42.548;22.968;2023-04-29T03:01:56;93865.13;;;3.10;85.79
10518;BME280;5307;42.548;22.968;2023-04-29T03:04:23;93863.75;;;3.33;85.05
10518;BME280;5307;42.548;22.968;2023-04-29T03:06:51;93851.25;;;3.12;85.68
10518;BME280;5307;42.548;22.968;2023-04-29T03:09:18;93856.72;;;3.01;86.37
10518;BME280;5307;42.548;22.968;2023-04-29T03:11:46;93859.06;;;2.99;86.21
10518;BME280;5307;42.548;22.968;2023-04-29T03:14:12;93866.44;;;3.33;85.32
10518;BME280;5307;42.548;22.968;2023-04-29T03:16:39;93855.06;;;3.14;85.65
10518;BME280;5307;42.548;22.968;2023-04-29T03:19:07;93869.25;;;3.22;85.83
10518;BME280;5307;42.548;22.968;2023-04-29T03:21:34;93878.47;;;3.28;84.61
10518;BME280;5307;42.548;22.968;2023-04-29T03:24:03;93887.31;;;3.28;85.11
10518;BME280;5307;42.548;22.968;2023-04-29T03:26:30;93877.25;;;3.33;84.66
10518;BME280;5307;42.548;22.968;2023-04-29T03:28:57;93871.53;;;3.27;84.79
10518;BME280;5307;42.548;22.968;2023-04-29T03:31:23;93868.75;;;3.34;85.22
10518;BME280;5307;42.548;22.968;2023-04-29T03:33:52;93881.53;;;3.68;84.65
10518;BME280;5307;42.548;22.968;2023-04-29T03:36:19;93881.38;;;3.82;84.37
10518;BME280;5307;42.548;22.968;2023-04-29T03:38:46;93883.91;;;3.96;84.13
10518;BME280;5307;42.548;22.968;2023-04-29T03:41:14;93886.41;;;3.42;83.33
10518;BME280;5307;42.548;22.968;2023-04-29T03:43:41;93882.19;;;3.41;83.86
10518;BME280;5307;42.548;22.968;2023-04-29T03:46:09;93890.94;;;3.08;84.32
10518;BME280;5307;42.548;22.968;2023-04-29T03:48:36;93899.81;;;3.08;85.84
10518;BME280;5307;42.548;22.968;2023-04-29T03:51:03;93901.34;;;3.09;85.81
10518;BME280;5307;42.548;22.968;2023-04-29T03:53:30;93904.44;;;3.08;85.32
10518;BME280;5307;42.548;22.968;2023-04-29T03:55:57;93893.19;;;2.68;86.26
10518;BME280;5307;42.548;22.968;2023-04-29T03:58:25;93895.25;;;3.02;87.01
10518;BME280;5307;42.548;22.968;2023-04-29T04:00:52;93897.50;;;3.07;85.47
10518;BME280;5307;42.548;22.968;2023-04-29T04:03:20;93898.16;;;3.25;84.77
10518;BME280;5307;42.548;22.968;2023-04-29T04:05:50;93895.00;;;3.30;84.32
10518;BME280;5307;42.548;22.968;2023-04-29T04:08:16;93895.59;;;3.48;83.68
10518;BME280;5307;42.548;22.968;2023-04-29T04:10:43;93893.13;;;3.27;83.40
10518;BME280;5307;42.548;22.968;2023-04-29T04:13:10;93908.53;;;3.68;82.30
10518;BME280;5307;42.548;22.968;2023-04-29T04:15:38;93903.47;;;3.32;82.01
10518;BME280;5307;42.548;22.968;2023-04-29T04:18:05;93905.72;;;3.41;81.71
10518;BME280;5307;42.548;22.968;2023-04-29T04:20:32;93913.81;;;3.37;82.25
10518;BME280;5307;42.548;22.968;2023-04-29T04:22:58;93910.22;;;3.51;81.94
10518;BME280;5307;42.548;22.968;2023-04-29T04:25:25;93900.94;;;3.55;81.64
10518;BME280;5307;42.548;22.968;2023-04-29T04:27:52;93904.78;;;3.58;81.65
10518;BME280;5307;42.548;22.968;2023-04-29T04:30:19;93906.88;;;3.77;81.18
10518;BME280;5307;42.548;22.968;2023-04-29T04:32:47;93911.88;;;3.38;80.74
10518;BME280;5307;42.548;22.968;2023-04-29T04:35:14;93913.00;;;3.85;81.27
10518;BME280;5307;42.548;22.968;2023-04-29T04:37:41;93912.38;;;4.04;80.50
10518;BME280;5307;42.548;22.968;2023-04-29T04:40:08;93922.88;;;3.99;79.22
10518;BME280;5307;42.548;22.968;2023-04-29T04:42:36;93921.38;;;3.94;80.43
10518;BME280;5307;42.548;22.968;2023-04-29T04:47:54;93909.44;;;4.26;79.68
10518;BME280;5307;42.548;22.968;2023-04-29T04:50:21;93901.56;;;4.35;79.00
10518;BME280;5307;42.548;22.968;2023-04-29T04:52:48;93904.19;;;4.42;78.85
10518;BME280;5307;42.548;22.968;2023-04-29T04:55:14;93896.97;;;4.32;79.14
10518;BME280;5307;42.548;22.968;2023-04-29T04:57:41;93900.72;;;4.11;78.56
10518;BME280;5307;42.548;22.968;2023-04-29T05:00:09;93901.78;;;4.51;79.04
10518;BME280;5307;42.548;22.968;2023-04-29T05:02:36;93899.91;;;4.44;78.91
10518;BME280;5307;42.548;22.968;2023-04-29T05:05:05;93908.88;;;4.68;80.03
10518;BME280;5307;42.548;22.968;2023-04-29T05:07:32;93908.13;;;4.64;77.99
10518;BME280;5307;42.548;22.968;2023-04-29T05:10:00;93892.63;;;4.41;78.69
10518;BME280;5307;42.548;22.968;2023-04-29T05:12:27;93892.44;;;4.83;79.39
10518;BME280;5307;42.548;22.968;2023-04-29T05:14:55;93872.66;;;4.86;77.47
10518;BME280;5307;42.548;22.968;2023-04-29T05:17:22;93884.16;;;5.17;76.62
10518;BME280;5307;42.548;22.968;2023-04-29T05:19:48;93893.00;;;5.44;75.49
10518;BME280;5307;42.548;22.968;2023-04-29T05:22:17;93894.59;;;5.42;74.13
10518;BME280;5307;42.548;22.968;2023-04-29T05:24:43;93881.03;;;5.65;73.93
10518;BME280;5307;42.548;22.968;2023-04-29T05:27:12;93881.72;;;5.69;74.02
10518;BME280;5307;42.548;22.968;2023-04-29T05:29:39;93888.94;;;5.56;73.12
10518;BME280;5307;42.548;22.968;2023-04-29T05:32:06;93889.31;;;5.78;73.65
10518;BME280;5307;42.548;22.968;2023-04-29T05:34:33;93884.06;;;5.90;73.91
10518;BME280;5307;42.548;22.968;2023-04-29T05:37:00;93887.34;;;6.02;73.67
10518;BME280;5307;42.548;22.968;2023-04-29T05:39:29;93880.59;;;6.10;71.62
10518;BME280;5307;42.548;22.968;2023-04-29T05:41:56;93887.41;;;6.38;71.05
10518;BME280;5307;42.548;22.968;2023-04-29T05:44:23;93878.00;;;6.42;69.72
10518;BME280;5307;42.548;22.968;2023-04-29T05:46:50;93880.44;;;6.73;68.75
10518;BME280;5307;42.548;22.968;2023-04-29T05:49:17;93879.25;;;6.38;68.58
10518;BME280;5307;42.548;22.968;2023-04-29T05:51:43;93871.00;;;6.25;67.38
10518;BME280;5307;42.548;22.968;2023-04-29T05:54:10;93876.03;;;6.43;68.77
10518;BME280;5307;42.548;22.968;2023-04-29T05:56:38;93870.28;;;6.77;67.79
10518;BME280;5307;42.548;22.968;2023-04-29T05:59:05;93867.50;;;6.97;67.92
10518;BME280;5307;42.548;22.968;2023-04-29T06:01:32;93870.91;;;7.33;66.53
10518;BME280;5307;42.548;22.968;2023-04-29T06:03:59;93860.63;;;7.25;65.86
10518;BME280;5307;42.548;22.968;2023-04-29T06:06:26;93854.44;;;7.24;65.56
10518;BME280;5307;42.548;22.968;2023-04-29T06:08:53;93854.25;;;7.48;65.38
10518;BME280;5307;42.548;22.968;2023-04-29T06:11:19;93845.97;;;7.67;64.98
10518;BME280;5307;42.548;22.968;2023-04-29T06:13:48;93850.09;;;8.01;65.49
10518;BME280;5307;42.548;22.968;2023-04-29T06:16:14;93858.09;;;8.50;65.00
10518;BME280;5307;42.548;22.968;2023-04-29T06:18:42;93853.97;;;8.83;62.24
10518;BME280;5307;42.548;22.968;2023-04-29T06:21:09;93849.25;;;9.22;60.52
10518;BME280;5307;42.548;22.968;2023-04-29T06:23:36;93843.66;;;9.38;58.78
10518;BME280;5307;42.548;22.968;2023-04-29T06:26:05;93832.13;;;9.34;56.69
10518;BME280;5307;42.548;22.968;2023-04-29T06:28:31;93831.88;;;9.41;56.98
10518;BME280;5307;42.548;22.968;2023-04-29T06:30:59;93834.31;;;9.96;54.91
10518;BME280;5307;42.548;22.968;2023-04-29T06:33:28;93839.34;;;9.63;54.59
10518;BME280;5307;42.548;22.968;2023-04-29T06:36:00;93833.75;;;10.45;53.35
10518;BME280;5307;42.548;22.968;2023-04-29T06:38:27;93837.28;;;10.10;54.42
10518;BME280;5307;42.548;22.968;2023-04-29T06:40:54;93834.16;;;10.65;52.59
10518;BME280;5307;42.548;22.968;2023-04-29T06:43:22;93831.25;;;11.67;52.64
10518;BME280;5307;42.548;22.968;2023-04-29T06:45:48;93825.88;;;11.18;51.11
10518;BME280;5307;42.548;22.968;2023-04-29T06:48:17;93822.16;;;10.31;50.87
10518;BME280;5307;42.548;22.968;2023-04-29T06:50:50;93827.91;;;10.95;49.76
10518;BME280;5307;42.548;22.968;2023-04-29T06:53:17;93828.19;;;11.28;48.97
10518;BME280;5307;42.548;22.968;2023-04-29T06:55:44;93827.50;;;11.06;48.94
10518;BME280;5307;42.548;22.968;2023-04-29T06:58:11;93822.94;;;11.80;48.22
10518;BME280;5307;42.548;22.968;2023-04-29T07:00:38;93827.19;;;12.08;47.65
10518;BME280;5307;42.548;22.968;2023-04-29T07:03:05;93812.16;;;12.13;45.73
10518;BME280;5307;42.548;22.968;2023-04-29T07:05:34;93810.97;;;12.65;46.14
10518;BME280;5307;42.548;22.968;2023-04-29T07:08:01;93824.00;;;11.73;45.92
10518;BME280;5307;42.548;22.968;2023-04-29T07:10:28;93817.31;;;11.74;45.36
10518;BME280;5307;42.548;22.968;2023-04-29T07:12:55;93818.88;;;12.72;44.44
10518;BME280;5307;42.548;22.968;2023-04-29T07:15:22;93809.41;;;13.25;44.09
10518;BME280;5307;42.548;22.968;2023-04-29T07:17:49;93806.34;;;12.81;44.22
10518;BME280;5307;42.548;22.968;2023-04-29T07:20:16;93803.84;;;12.59;44.00
10518;BME280;5307;42.548;22.968;2023-04-29T07:22:44;93805.06;;;13.81;44.91
10518;BME280;5307;42.548;22.968;2023-04-29T07:25:11;93808.81;;;13.45;44.38
10518;BME280;5307;42.548;22.968;2023-04-29T07:27:38;93812.25;;;12.97;44.02
10518;BME280;5307;42.548;22.968;2023-04-29T07:30:07;93811.00;;;12.98;44.81
10518;BME280;5307;42.548;22.968;2023-04-29T07:32:34;93797.50;;;13.28;45.23
10518;BME280;5307;42.548;22.968;2023-04-29T07:35:01;93809.91;;;12.63;44.67
10518;BME280;5307;42.548;22.968;2023-04-29T07:37:28;93809.59;;;12.70;44.16
10518;BME280;5307;42.548;22.968;2023-04-29T07:39:56;93813.13;;;12.61;43.74
10518;BME280;5307;42.548;22.968;2023-04-29T07:42:23;93811.31;;;12.58;44.73
10518;BME280;5307;42.548;22.968;2023-04-29T07:44:50;93819.44;;;12.16;44.88
10518;BME280;5307;42.548;22.968;2023-04-29T07:47:17;93816.25;;;11.90;44.25
10518;BME280;5307;42.548;22.968;2023-04-29T07:49:43;93812.78;;;11.89;44.16
10518;BME280;5307;42.548;22.968;2023-04-29T07:52:10;93811.53;;;12.27;44.89
10518;BME280;5307;42.548;22.968;2023-04-29T07:54:37;93803.34;;;12.00;43.38
10518;BME280;5307;42.548;22.968;2023-04-29T07:57:05;93811.53;;;12.27;43.15
10518;BME280;5307;42.548;22.968;2023-04-29T07:59:32;93808.91;;;12.33;43.68
10518;BME280;5307;42.548;22.968;2023-04-29T08:01:59;93809.84;;;12.30;42.69
10518;BME280;5307;42.548;22.968;2023-04-29T08:04:25;93806.50;;;12.26;43.47
10518;BME280;5307;42.548;22.968;2023-04-29T08:06:52;93806.81;;;12.09;43.98
10518;BME280;5307;42.548;22.968;2023-04-29T08:09:19;93805.59;;;12.19;43.46
10518;BME280;5307;42.548;22.968;2023-04-29T08:11:46;93807.41;;;12.23;43.05
10518;BME280;5307;42.548;22.968;2023-04-29T08:14:14;93806.66;;;12.22;42.47
10518;BME280;5307;42.548;22.968;2023-04-29T08:16:41;93798.13;;;12.29;42.43
10518;BME280;5307;42.548;22.968;2023-04-29T08:19:08;93804.69;;;11.95;42.17
10518;BME280;5307;42.548;22.968;2023-04-29T08:21:34;93793.13;;;12.18;39.92
10518;BME280;5307;42.548;22.968;2023-04-29T08:24:01;93794.34;;;12.27;41.22
10518;BME280;5307;42.548;22.968;2023-04-29T08:26:30;93788.28;;;12.65;41.00
10518;BME280;5307;42.548;22.968;2023-04-29T08:28:56;93796.75;;;12.43;40.40
10518;BME280;5307;42.548;22.968;2023-04-29T08:31:25;93802.50;;;12.54;43.01
10518;BME280;5307;42.548;22.968;2023-04-29T08:33:51;93800.41;;;12.40;42.96
10518;BME280;5307;42.548;22.968;2023-04-29T08:36:18;93790.63;;;12.90;43.68
10518;BME280;5307;42.548;22.968;2023-04-29T08:38:45;93794.97;;;12.73;43.13
10518;BME280;5307;42.548;22.968;2023-04-29T08:41:13;93785.41;;;13.01;43.86
10518;BME280;5307;42.548;22.968;2023-04-29T08:43:41;93777.56;;;12.85;42.20
10518;BME280;5307;42.548;22.968;2023-04-29T08:46:08;93786.00;;;13.05;42.17
10518;BME280;5307;42.548;22.968;2023-04-29T08:48:37;93776.31;;;12.95;43.27
10518;BME280;5307;42.548;22.968;2023-04-29T08:51:05;93779.84;;;12.87;42.05
10518;BME280;5307;42.548;22.968;2023-04-29T08:53:32;93781.56;;;13.08;43.90
10518;BME280;5307;42.548;22.968;2023-04-29T08:56:03;93777.63;;;13.09;42.71
10518;BME280;5307;42.548;22.968;2023-04-29T08:58:38;93769.66;;;12.78;43.74
10518;BME280;5307;42.548;22.968;2023-04-29T09:01:07;93775.50;;;13.04;44.67
10518;BME280;5307;42.548;22.968;2023-04-29T09:03:43;93777.69;;;13.48;44.13
10518;BME280;5307;42.548;22.968;2023-04-29T09:06:12;93773.34;;;13.41;43.96
10518;BME280;5307;42.548;22.968;2023-04-29T09:08:39;93766.66;;;13.33;45.01
10518;BME280;5307;42.548;22.968;2023-04-29T09:11:07;93779.75;;;13.38;42.55
10518;BME280;5307;42.548;22.968;2023-04-29T09:13:34;93773.59;;;13.19;41.30
10518;BME280;5307;42.548;22.968;2023-04-29T09:16:01;93775.63;;;13.10;41.17
10518;BME280;5307;42.548;22.968;2023-04-29T09:18:43;93775.09;;;12.96;41.06
10518;BME280;5307;42.548;22.968;2023-04-29T09:21:16;93780.59;;;13.20;41.05
10518;BME280;5307;42.548;22.968;2023-04-29T09:23:43;93766.22;;;13.01;41.23
10518;BME280;5307;42.548;22.968;2023-04-29T09:26:10;93768.88;;;13.44;41.68
10518;BME280;5307;42.548;22.968;2023-04-29T09:28:37;93768.84;;;13.29;40.66
10518;BME280;5307;42.548;22.968;2023-04-29T09:31:08;93765.38;;;13.43;41.07
10518;BME280;5307;42.548;22.968;2023-04-29T09:33:54;93761.31;;;13.77;41.23
10518;BME280;5307;42.548;22.968;2023-04-29T09:36:40;93759.34;;;13.39;41.21
10518;BME280;5307;42.548;22.968;2023-04-29T09:39:10;93749.56;;;13.77;40.78
10518;BME280;5307;42.548;22.968;2023-04-29T09:41:39;93753.75;;;13.72;40.70
10518;BME280;5307;42.548;22.968;2023-04-29T09:44:07;93742.00;;;13.72;40.47
10518;BME280;5307;42.548;22.968;2023-04-29T09:46:41;93738.63;;;14.06;41.25
10518;BME280;5307;42.548;22.968;2023-04-29T09:49:23;93742.28;;;13.35;40.12
10518;BME280;5307;42.548;22.968;2023-04-29T09:51:55;93736.28;;;13.60;39.80
10518;BME280;5307;42.548;22.968;2023-04-29T09:54:23;93732.25;;;13.71;40.74
10518;BME280;5307;42.548;22.968;2023-04-29T09:56:51;93730.25;;;13.56;41.16
10518;BME280;5307;42.548;22.968;2023-04-29T09:59:18;93724.25;;;13.82;40.91
10518;BME280;5307;42.548;22.968;2023-04-29T10:01:47;93725.81;;;13.74;39.55
10518;BME280;5307;42.548;22.968;2023-04-29T10:04:16;93719.84;;;13.75;37.93
10518;BME280;5307;42.548;22.968;2023-04-29T10:06:48;93713.84;;;14.01;39.51
10518;BME280;5307;42.548;22.968;2023-04-29T10:09:16;93718.00;;;13.96;39.50
10518;BME280;5307;42.548;22.968;2023-04-29T10:11:43;93720.34;;;13.74;38.66
10518;BME280;5307;42.548;22.968;2023-04-29T10:14:12;93715.22;;;13.66;39.59
10518;BME280;5307;42.548;22.968;2023-04-29T10:16:44;93713.16;;;13.91;40.39
10518;BME280;5307;42.548;22.968;2023-04-29T10:19:18;93702.50;;;14.22;40.48
10518;BME280;5307;42.548;22.968;2023-04-29T10:21:48;93707.03;;;13.96;41.65
10518;BME280;5307;42.548;22.968;2023-04-29T10:24:17;93705.31;;;14.13;43.34
10518;BME280;5307;42.548;22.968;2023-04-29T10:26:46;93707.03;;;14.25;43.41
10518;BME280;5307;42.548;22.968;2023-04-29T10:29:13;93704.28;;;14.11;42.07
10518;BME280;5307;42.548;22.968;2023-04-29T10:31:42;93707.78;;;14.11;41.14
10518;BME280;5307;42.548;22.968;2023-04-29T10:34:10;93701.13;;;13.88;41.20
10518;BME280;5307;42.548;22.968;2023-04-29T10:36:38;93701.91;;;14.18;41.98
10518;BME280;5307;42.548;22.968;2023-04-29T10:39:11;93701.25;;;14.38;42.24
10518;BME280;5307;42.548;22.968;2023-04-29T10:49:08;93692.78;;;14.71;41.85
10518;BME280;5307;42.548;22.968;2023-04-29T10:51:39;93688.63;;;14.61;40.54
10518;BME280;5307;42.548;22.968;2023-04-29T10:54:09;93699.41;;;14.79;41.19
10518;BME280;5307;42.548;22.968;2023-04-29T10:56:52;93697.69;;;15.02;41.83
10518;BME280;5307;42.548;22.968;2023-04-29T10:59:20;93686.91;;;15.19;39.66
10518;BME280;5307;42.548;22.968;2023-04-29T11:01:52;93686.16;;;15.19;40.09
10518;BME280;5307;42.548;22.968;2023-04-29T11:27:48;93685.44;;;14.83;39.05
10518;BME280;5307;42.548;22.968;2023-04-29T11:30:17;93685.22;;;14.66;37.84
10518;BME280;5307;42.548;22.968;2023-04-29T11:32:45;93685.00;;;14.70;38.53
10518;BME280;5307;42.548;22.968;2023-04-29T11:35:16;93688.00;;;14.87;39.61
10518;BME280;5307;42.548;22.968;2023-04-29T11:37:45;93670.19;;;15.02;40.23
10518;BME280;5307;42.548;22.968;2023-04-29T11:40:13;93672.97;;;15.23;39.53
10518;BME280;5307;42.548;22.968;2023-04-29T11:42:43;93666.44;;;15.20;38.68
10518;BME280;5307;42.548;22.968;2023-04-29T11:45:11;93681.63;;;15.15;38.61
10518;BME280;5307;42.548;22.968;2023-04-29T11:47:41;93665.88;;;14.96;37.57
10518;BME280;5307;42.548;22.968;2023-04-29T11:50:09;93666.09;;;15.12;39.47
10518;BME280;5307;42.548;22.968;2023-04-29T11:52:36;93671.94;;;15.20;39.05
10518;BME280;5307;42.548;22.968;2023-04-29T11:55:05;93669.84;;;15.15;38.85
10518;BME280;5307;42.548;22.968;2023-04-29T11:57:33;93665.19;;;15.21;38.14
10518;BME280;5307;42.548;22.968;2023-04-29T12:00:00;93674.25;;;15.27;38.34
10518;BME280;5307;42.548;22.968;2023-04-29T12:02:32;93665.72;;;15.05;37.23
10518;BME280;5307;42.548;22.968;2023-04-29T12:04:59;93663.13;;;14.96;38.83
10518;BME280;5307;42.548;22.968;2023-04-29T12:07:26;93660.09;;;14.94;37.77
10518;BME280;5307;42.548;22.968;2023-04-29T12:09:54;93657.25;;;14.88;37.11
10518;BME280;5307;42.548;22.968;2023-04-29T12:12:21;93662.53;;;14.92;37.56
10518;BME280;5307;42.548;22.968;2023-04-29T12:14:49;93659.94;;;15.03;37.68
10518;BME280;5307;42.548;22.968;2023-04-29T12:17:16;93659.19;;;15.02;37.68
10518;BME280;5307;42.548;22.968;2023-04-29T12:19:44;93661.78;;;14.91;37.27
10518;BME280;5307;42.548;22.968;2023-04-29T12:22:12;93660.53;;;15.07;39.17
10518;BME280;5307;42.548;22.968;2023-04-29T12:24:39;93651.63;;;14.97;38.22
10518;BME280;5307;42.548;22.968;2023-04-29T12:27:07;93657.03;;;14.92;39.09
10518;BME280;5307;42.548;22.968;2023-04-29T12:29:34;93645.13;;;14.95;39.21
10518;BME280;5307;42.548;22.968;2023-04-29T12:32:01;93641.88;;;14.96;38.46
10518;BME280;5307;42.548;22.968;2023-04-29T12:34:29;93641.50;;;14.89;37.92
10518;BME280;5307;42.548;22.968;2023-04-29T12:36:59;93638.28;;;14.90;38.06
10518;BME280;5307;42.548;22.968;2023-04-29T12:39:26;93625.50;;;14.87;38.42
10518;BME280;5307;42.548;22.968;2023-04-29T12:41:54;93633.34;;;14.94;38.94
10518;BME280;5307;42.548;22.968;2023-04-29T12:44:22;93639.88;;;14.97;37.87
10518;BME280;5307;42.548;22.968;2023-04-29T12:46:49;93636.72;;;15.04;39.52
10518;BME280;5307;42.548;22.968;2023-04-29T12:49:16;93643.19;;;15.01;38.99
10518;BME280;5307;42.548;22.968;2023-04-29T12:51:44;93639.94;;;15.02;38.53
10518;BME280;5307;42.548;22.968;2023-04-29T12:54:13;93640.16;;;14.99;38.78
10518;BME280;5307;42.548;22.968;2023-04-29T12:56:39;93629.69;;;14.82;39.48
10518;BME280;5307;42.548;22.968;2023-04-29T12:59:07;93634.22;;;15.06;39.87
10518;BME280;5307;42.548;22.968;2023-04-29T13:01:35;93638.31;;;15.10;38.81
10518;BME280;5307;42.548;22.968;2023-04-29T13:04:02;93634.13;;;14.95;39.17
10518;BME280;5307;42.548;22.968;2023-04-29T13:06:30;93627.91;;;15.00;39.73
10518;BME280;5307;42.548;22.968;2023-04-29T13:08:57;93623.28;;;14.91;39.76
10518;BME280;5307;42.548;22.968;2023-04-29T13:11:25;93619.72;;;14.85;40.14
10518;BME280;5307;42.548;22.968;2023-04-29T13:13:52;93624.84;;;14.92;41.44
10518;BME280;5307;42.548;22.968;2023-04-29T13:16:18;93624.84;;;14.92;41.60
10518;BME280;5307;42.548;22.968;2023-04-29T13:18:45;93619.53;;;14.89;42.80
10518;BME280;5307;42.548;22.968;2023-04-29T13:21:12;93623.38;;;14.97;42.85
10518;BME280;5307;42.548;22.968;2023-04-29T13:23:39;93620.28;;;14.89;43.29
10518;BME280;5307;42.548;22.968;2023-04-29T13:26:05;93623.34;;;14.76;42.15
10518;BME280;5307;42.548;22.968;2023-04-29T13:28:34;93623.09;;;14.74;42.81
10518;BME280;5307;42.548;22.968;2023-04-29T13:31:03;93625.28;;;14.70;41.30
10518;BME280;5307;42.548;22.968;2023-04-29T13:33:30;93615.25;;;14.88;43.76
10518;BME280;5307;42.548;22.968;2023-04-29T13:35:57;93609.00;;;14.87;43.41
10518;BME280;5307;42.548;22.968;2023-04-29T13:38:26;93616.22;;;14.84;42.22
10518;BME280;5307;42.548;22.968;2023-04-29T13:40:56;93609.91;;;14.99;44.53
10518;BME280;5307;42.548;22.968;2023-04-29T13:43:23;93600.28;;;15.09;45.29